createdAt,value
2023-02-06T00:02:02.453Z,41.8
2023-02-06T00:07:21.213Z,41.6
2023-02-06T00:12:40.123Z,41.8
2023-02-06T00:17:58.329Z,41.5
2023-02-06T00:23:17.467Z,42.3
2023-02-06T00:28:35.659Z,41.5
2023-02-06T00:33:53.915Z,42.3
2023-02-06T00:39:11.922Z,42.6
2023-02-06T00:44:30.394Z,41.8
2023-02-06T00:49:48.911Z,42.7
2023-02-06T00:55:07.937Z,42.1
2023-02-06T01:00:26.420Z,42.1
2023-02-06T01:05:45.230Z,42.7
2023-02-06T01:11:03.139Z,42.6
2023-02-06T01:16:21.465Z,42
2023-02-06T01:21:45.400Z,42.8
2023-02-06T01:27:09.415Z,42.7
2023-02-06T01:32:28.097Z,42.8
2023-02-06T01:37:46.079Z,42.8
2023-02-06T01:43:04.349Z,42.3
2023-02-06T01:48:22.739Z,42.2
2023-02-06T01:53:41.234Z,42.3
2023-02-06T01:58:59.486Z,42.7
2023-02-06T02:04:17.716Z,41.9
2023-02-06T02:09:35.902Z,42.2
2023-02-06T02:14:53.848Z,43.1
2023-02-06T02:20:12.641Z,42.3
2023-02-06T02:25:30.811Z,42.8
2023-02-06T02:30:49.540Z,43
2023-02-06T02:36:07.780Z,43.1
2023-02-06T02:41:26.249Z,42.3
2023-02-06T02:46:44.444Z,43.1
2023-02-06T02:52:02.964Z,42.5
2023-02-06T02:57:20.897Z,42.3
2023-02-06T03:02:39.091Z,42.4
2023-02-06T03:07:57.738Z,43.2
2023-02-06T03:13:16.279Z,42.5
2023-02-06T03:18:34.466Z,42.6
2023-02-06T03:23:52.606Z,43.4
2023-02-06T03:29:10.929Z,42.9
2023-02-06T03:34:29.929Z,42.9
2023-02-06T03:39:48.451Z,42.9
2023-02-06T03:45:07.408Z,43.7
2023-02-06T03:50:25.698Z,43.7
2023-02-06T03:55:44.274Z,43.5
2023-02-06T04:01:03.000Z,43.3
2023-02-06T04:06:21.316Z,43.5
2023-02-06T04:11:40.176Z,43.2
2023-02-06T04:16:58.699Z,43
2023-02-06T04:22:16.960Z,43.6
2023-02-06T04:27:35.481Z,43.4
2023-02-06T04:32:54.217Z,43.1
2023-02-06T04:38:12.993Z,43.5
2023-02-06T04:43:31.791Z,43
2023-02-06T04:48:50.567Z,43.1
2023-02-06T04:54:09.059Z,43.6
2023-02-06T04:59:27.564Z,42.9
2023-02-06T05:04:45.503Z,43.6
2023-02-06T05:10:03.911Z,42.9
2023-02-06T05:15:22.182Z,43.5
2023-02-06T05:20:40.638Z,43.6
2023-02-06T05:25:59.153Z,43.7
2023-02-06T05:31:18.525Z,43
2023-02-06T05:36:37.460Z,43.4
2023-02-06T05:41:55.789Z,43.2
2023-02-06T05:47:14.303Z,43
2023-02-06T05:52:32.758Z,43.1
2023-02-06T05:57:51.270Z,43.5
2023-02-06T06:03:10.093Z,43.9
2023-02-06T06:08:28.298Z,43.8
2023-02-06T06:13:47.010Z,43.8
2023-02-06T06:19:05.924Z,43.1
2023-02-06T06:24:24.148Z,43.8
2023-02-06T06:29:42.535Z,43.5
2023-02-06T06:35:01.321Z,43.5
2023-02-06T06:40:19.811Z,42.9
2023-02-06T06:45:39.609Z,42.8
2023-02-06T06:50:59.068Z,43.3
2023-02-06T06:56:17.906Z,43.5
2023-02-06T07:01:36.153Z,39.9
2023-02-06T07:06:55.014Z,41.1
2023-02-06T07:12:13.183Z,41.5
2023-02-06T07:17:31.780Z,41
2023-02-06T07:22:34.927Z,41.6
2023-02-06T07:27:53.183Z,41.8
2023-02-06T07:33:11.953Z,41.8
2023-02-06T07:38:31.024Z,42
2023-02-06T07:43:49.846Z,41.7
2023-02-06T07:49:08.560Z,40.9
2023-02-06T07:54:26.996Z,41.1
2023-02-06T07:59:44.917Z,42.2
2023-02-06T08:05:03.416Z,41.7
2023-02-06T08:10:22.308Z,42.2
2023-02-06T08:15:40.785Z,41.6
2023-02-06T08:20:59.461Z,41.4
2023-02-06T08:26:18.109Z,41.4
2023-02-06T08:31:37.260Z,41
2023-02-06T08:36:55.600Z,41.6
2023-02-06T08:42:14.130Z,41.3
2023-02-06T08:47:32.604Z,41.4
2023-02-06T08:52:50.993Z,41.1
2023-02-06T08:58:09.821Z,41.8
2023-02-06T09:03:28.279Z,41.8
2023-02-06T09:08:47.086Z,41.8
2023-02-06T09:14:05.597Z,41.2
2023-02-06T09:19:24.274Z,42
2023-02-06T09:24:28.386Z,40.9
2023-02-06T09:29:46.879Z,41.1
2023-02-06T09:35:05.355Z,41
2023-02-06T09:40:23.950Z,41
2023-02-06T09:45:42.515Z,40.7
2023-02-06T09:51:01.344Z,41.5
2023-02-06T09:56:19.588Z,40.6
2023-02-06T10:01:37.860Z,41
2023-02-06T10:06:56.370Z,41
2023-02-06T10:12:14.963Z,41.2
2023-02-06T10:17:33.743Z,41.2
2023-02-06T10:22:52.556Z,40.7
2023-02-06T10:28:11.411Z,41.6
2023-02-06T10:33:30.214Z,41.6
2023-02-06T10:38:48.774Z,40.8
2023-02-06T10:44:08.000Z,41.2
2023-02-06T10:49:27.141Z,41.5
2023-02-06T10:54:45.900Z,40.9
2023-02-06T11:00:04.590Z,41.5
2023-02-06T11:05:23.699Z,41.4
2023-02-06T11:10:42.195Z,40.8
2023-02-06T11:16:01.185Z,40.6
2023-02-06T11:21:19.854Z,40.8
2023-02-06T11:26:38.393Z,41.4
2023-02-06T11:31:57.431Z,41.1
2023-02-06T11:37:15.685Z,41.1
2023-02-06T11:42:34.439Z,40.5
2023-02-06T11:47:53.284Z,40.8
2023-02-06T11:53:12.059Z,41.2
2023-02-06T11:58:30.620Z,40.6
2023-02-06T12:03:49.806Z,40.1
2023-02-06T12:09:08.075Z,41
2023-02-06T12:14:26.494Z,41
2023-02-06T12:19:45.010Z,41
2023-02-06T12:25:03.573Z,40.9
2023-02-06T12:30:07.101Z,40.8
2023-02-06T12:35:26.012Z,40.4
2023-02-06T12:40:44.906Z,40.6
2023-02-06T12:46:03.614Z,40.8
2023-02-06T12:51:06.822Z,40.4
2023-02-06T12:56:10.054Z,41.2
2023-02-06T13:01:35.182Z,40.9
2023-02-06T13:06:54.108Z,40.5
2023-02-06T13:12:13.058Z,40.7
2023-02-06T13:17:31.273Z,41.3
2023-02-06T13:22:49.687Z,40.6
2023-02-06T13:28:08.284Z,41.4
2023-02-06T13:33:26.857Z,41.5
2023-02-06T13:38:45.422Z,41.1
2023-02-06T13:44:04.196Z,40.5
2023-02-06T13:49:23.226Z,41.4
2023-02-06T13:54:26.366Z,40.8
2023-02-06T13:59:29.553Z,41.1
2023-02-06T14:04:40.438Z,41.6
2023-02-06T14:09:59.027Z,40.5
2023-02-06T14:15:01.944Z,40.5
2023-02-06T14:20:20.425Z,40.5
2023-02-06T14:25:40.151Z,40.4
2023-02-06T14:30:59.189Z,41.2
2023-02-06T14:36:18.336Z,41.2
2023-02-06T14:41:41.223Z,40.8
2023-02-06T14:47:00.260Z,40.3
2023-02-06T14:52:18.802Z,40.7
2023-02-06T14:57:37.214Z,40.6
2023-02-06T15:02:55.798Z,40.6
2023-02-06T15:08:13.992Z,40.7
2023-02-06T15:13:32.735Z,41.3
2023-02-06T15:18:51.565Z,41.1
2023-02-06T15:24:10.623Z,41.2
2023-02-06T15:29:29.405Z,41.2
2023-02-06T15:34:48.547Z,41
2023-02-06T15:40:07.879Z,40.7
2023-02-06T15:45:26.923Z,40.6
2023-02-06T15:50:45.870Z,40.7
2023-02-06T15:55:50.027Z,40.8
2023-02-06T16:01:09.095Z,40.6
2023-02-06T16:06:27.882Z,40.6
2023-02-06T16:11:46.370Z,40.7
2023-02-06T16:17:05.208Z,40.8
2023-02-06T16:22:23.746Z,41.8
2023-02-06T16:27:42.000Z,41.4
2023-02-06T16:33:00.846Z,41.3
2023-02-06T16:38:19.596Z,40.8
2023-02-06T16:43:38.059Z,41.4
2023-02-06T16:48:56.881Z,40.7
2023-02-06T16:54:15.398Z,40.8
2023-02-06T16:59:34.865Z,41.4
2023-02-06T17:04:53.797Z,40.6
2023-02-06T17:10:12.787Z,40.5
2023-02-06T17:15:31.551Z,40.3
2023-02-06T17:20:50.308Z,41
2023-02-06T17:26:09.043Z,41.4
2023-02-06T17:31:27.804Z,41.1
2023-02-06T17:36:46.600Z,40.8
2023-02-06T17:42:05.122Z,40.6
2023-02-06T17:47:24.098Z,42.9
2023-02-06T17:52:27.283Z,40.7
2023-02-06T17:57:46.105Z,39.3
2023-02-06T18:03:05.116Z,39.5
2023-02-06T18:08:23.928Z,38.9
2023-02-06T18:13:26.826Z,38.6
2023-02-06T18:18:45.728Z,38.9
2023-02-06T18:24:04.456Z,38
2023-02-06T18:29:23.266Z,38.4
2023-02-06T18:34:44.854Z,39
2023-02-06T18:40:03.576Z,39.3
2023-02-06T18:45:22.556Z,39.2
2023-02-06T18:50:41.738Z,39.6
2023-02-06T18:56:00.220Z,39.2
2023-02-06T19:01:19.000Z,39.2
2023-02-06T19:06:37.774Z,39.9
2023-02-06T19:11:56.568Z,39.6
2023-02-06T19:17:15.348Z,40.1
2023-02-06T19:22:34.088Z,40.2
2023-02-06T19:27:53.050Z,40.3
2023-02-06T19:33:11.860Z,39.7
2023-02-06T19:38:30.370Z,39.6
2023-02-06T19:43:49.960Z,40
2023-02-06T19:49:08.822Z,40.4
2023-02-06T19:54:11.395Z,39.8
2023-02-06T19:59:29.969Z,40.3
2023-02-06T20:04:48.536Z,40.5
2023-02-06T20:10:07.252Z,40.8
2023-02-06T20:15:26.074Z,40.8
2023-02-06T20:20:44.924Z,40.4
2023-02-06T20:26:03.734Z,40.5
2023-02-06T20:31:23.276Z,40.3
2023-02-06T20:36:42.141Z,39.2
2023-02-06T20:41:44.717Z,40.1
2023-02-06T20:47:03.649Z,40.4
2023-02-06T20:52:22.137Z,40.3
2023-02-06T20:57:40.630Z,40.4
2023-02-06T21:02:59.382Z,41.1
2023-02-06T21:08:18.203Z,41
2023-02-06T21:13:36.980Z,40.7
2023-02-06T21:18:55.522Z,41
2023-02-06T21:24:14.324Z,41.6
2023-02-06T21:29:33.435Z,41.1
2023-02-06T21:34:52.225Z,41.8
2023-02-06T21:40:11.005Z,41.8
2023-02-06T21:45:30.328Z,41.3
2023-02-06T21:50:48.816Z,41.9
2023-02-06T21:56:07.675Z,41.2
2023-02-06T22:01:26.599Z,41.2
2023-02-06T22:06:45.157Z,41.4
2023-02-06T22:12:03.957Z,42.1
2023-02-06T22:17:22.699Z,42.1
2023-02-06T22:22:41.622Z,42.1
2023-02-06T22:28:00.531Z,41.5
2023-02-06T22:33:19.389Z,41.5
2023-02-06T22:38:37.665Z,42.2
2023-02-06T22:43:56.216Z,41.9
2023-02-06T22:49:14.967Z,42.6
2023-02-06T22:54:33.787Z,42.4
2023-02-06T22:59:52.585Z,42.5
2023-02-06T23:05:11.477Z,42
2023-02-06T23:10:29.985Z,41.8
2023-02-06T23:15:48.862Z,42.3
2023-02-06T23:21:07.332Z,42.2
2023-02-06T23:26:25.890Z,41.5
2023-02-06T23:31:44.971Z,42
2023-02-06T23:37:03.722Z,42.5
2023-02-06T23:42:22.336Z,42.3
2023-02-06T23:47:40.832Z,42.4
2023-02-06T23:52:59.596Z,41.5
2023-02-06T23:58:18.531Z,42.3
